sensor_id;sensor_type;location;lat;lon;timestamp;P1;durP1;ratioP1;P2;durP2;ratioP2
5077;SDS011;2557;51.390;7.494;2022-12-07T00:01:28;55.65;;;32.40;;
5077;SDS011;2557;51.390;7.494;2022-12-07T00:03:55;61.97;;;33.17;;
5077;SDS011;2557;51.390;7.494;2022-12-07T00:06:34;53.67;;;32.03;;
5077;SDS011;2557;51.390;7.494;2022-12-07T00:09:01;53.53;;;33.53;;
5077;SDS011;2557;51.390;7.494;2022-12-07T00:11:27;51.95;;;32.42;;
5077;SDS011;2557;51.390;7.494;2022-12-07T00:13:54;52.50;;;32.35;;
5077;SDS011;2557;51.390;7.494;2022-12-07T00:16:21;56.40;;;33.05;;
5077;SDS011;2557;51.390;7.494;2022-12-07T00:18:47;50.65;;;30.63;;
5077;SDS011;2557;51.390;7.494;2022-12-07T00:21:14;58.78;;;32.13;;
5077;SDS011;2557;51.390;7.494;2022-12-07T00:23:41;55.95;;;31.75;;
5077;SDS011;2557;51.390;7.494;2022-12-07T00:26:17;51.80;;;31.67;;
5077;SDS011;2557;51.390;7.494;2022-12-07T00:28:56;52.53;;;30.55;;
5077;SDS011;2557;51.390;7.494;2022-12-07T00:31:24;58.83;;;31.55;;
5077;SDS011;2557;51.390;7.494;2022-12-07T00:33:51;49.35;;;29.77;;
5077;SDS011;2557;51.390;7.494;2022-12-07T00:36:18;56.90;;;32.35;;
5077;SDS011;2557;51.390;7.494;2022-12-07T00:38:44;50.40;;;32.92;;
5077;SDS011;2557;51.390;7.494;2022-12-07T00:41:17;49.20;;;30.80;;
5077;SDS011;2557;51.390;7.494;2022-12-07T00:43:44;57.00;;;30.83;;
5077;SDS011;2557;51.390;7.494;2022-12-07T00:46:10;46.97;;;30.45;;
5077;SDS011;2557;51.390;7.494;2022-12-07T00:48:36;65.60;;;33.55;;
5077;SDS011;2557;51.390;7.494;2022-12-07T00:51:03;51.97;;;30.65;;
5077;SDS011;2557;51.390;7.494;2022-12-07T00:53:29;53.15;;;30.77;;
5077;SDS011;2557;51.390;7.494;2022-12-07T00:55:55;54.60;;;31.77;;
5077;SDS011;2557;51.390;7.494;2022-12-07T00:58:22;57.58;;;32.55;;
5077;SDS011;2557;51.390;7.494;2022-12-07T01:00:48;54.28;;;31.83;;
5077;SDS011;2557;51.390;7.494;2022-12-07T01:03:14;56.10;;;32.40;;
5077;SDS011;2557;51.390;7.494;2022-12-07T01:05:48;61.60;;;32.00;;
5077;SDS011;2557;51.390;7.494;2022-12-07T01:08:14;49.47;;;31.88;;
5077;SDS011;2557;51.390;7.494;2022-12-07T01:10:40;57.97;;;31.90;;
5077;SDS011;2557;51.390;7.494;2022-12-07T01:13:06;61.53;;;33.87;;
5077;SDS011;2557;51.390;7.494;2022-12-07T01:15:32;56.07;;;33.63;;
5077;SDS011;2557;51.390;7.494;2022-12-07T01:17:58;55.93;;;33.20;;
5077;SDS011;2557;51.390;7.494;2022-12-07T01:20:24;62.57;;;34.47;;
5077;SDS011;2557;51.390;7.494;2022-12-07T01:22:50;50.87;;;29.77;;
5077;SDS011;2557;51.390;7.494;2022-12-07T01:25:16;54.83;;;33.27;;
5077;SDS011;2557;51.390;7.494;2022-12-07T01:27:42;63.60;;;33.03;;
5077;SDS011;2557;51.390;7.494;2022-12-07T01:30:09;58.47;;;31.90;;
5077;SDS011;2557;51.390;7.494;2022-12-07T01:32:35;66.55;;;36.55;;
5077;SDS011;2557;51.390;7.494;2022-12-07T01:35:01;58.47;;;34.30;;
5077;SDS011;2557;51.390;7.494;2022-12-07T01:37:27;55.73;;;31.80;;
5077;SDS011;2557;51.390;7.494;2022-12-07T01:39:53;64.17;;;33.90;;
5077;SDS011;2557;51.390;7.494;2022-12-07T01:42:19;55.77;;;33.77;;
5077;SDS011;2557;51.390;7.494;2022-12-07T01:47:30;63.00;;;33.97;;
5077;SDS011;2557;51.390;7.494;2022-12-07T01:49:56;69.77;;;35.50;;
5077;SDS011;2557;51.390;7.494;2022-12-07T01:52:24;66.00;;;36.58;;
5077;SDS011;2557;51.390;7.494;2022-12-07T01:54:52;64.20;;;35.03;;
5077;SDS011;2557;51.390;7.494;2022-12-07T01:57:19;60.53;;;34.42;;
5077;SDS011;2557;51.390;7.494;2022-12-07T01:59:45;61.55;;;35.25;;
5077;SDS011;2557;51.390;7.494;2022-12-07T02:02:26;64.97;;;36.15;;
5077;SDS011;2557;51.390;7.494;2022-12-07T02:04:53;64.57;;;36.88;;
5077;SDS011;2557;51.390;7.494;2022-12-07T02:07:20;65.50;;;36.50;;
5077;SDS011;2557;51.390;7.494;2022-12-07T02:09:48;68.25;;;36.75;;
5077;SDS011;2557;51.390;7.494;2022-12-07T02:12:14;64.53;;;35.10;;
5077;SDS011;2557;51.390;7.494;2022-12-07T02:14:40;65.82;;;35.97;;
5077;SDS011;2557;51.390;7.494;2022-12-07T02:20:00;58.72;;;33.97;;
5077;SDS011;2557;51.390;7.494;2022-12-07T02:30:23;70.18;;;35.45;;
5077;SDS011;2557;51.390;7.494;2022-12-07T02:32:56;65.32;;;36.45;;
5077;SDS011;2557;51.390;7.494;2022-12-07T02:40:33;66.97;;;35.80;;
5077;SDS011;2557;51.390;7.494;2022-12-07T02:43:03;63.13;;;35.40;;
5077;SDS011;2557;51.390;7.494;2022-12-07T02:45:30;59.72;;;33.90;;
5077;SDS011;2557;51.390;7.494;2022-12-07T02:47:58;61.55;;;35.58;;
5077;SDS011;2557;51.390;7.494;2022-12-07T02:50:25;62.22;;;34.33;;
5077;SDS011;2557;51.390;7.494;2022-12-07T02:52:51;62.17;;;36.08;;
5077;SDS011;2557;51.390;7.494;2022-12-07T02:55:18;67.70;;;36.80;;
5077;SDS011;2557;51.390;7.494;2022-12-07T02:58:03;65.63;;;33.47;;
5077;SDS011;2557;51.390;7.494;2022-12-07T03:00:33;72.00;;;35.00;;
5077;SDS011;2557;51.390;7.494;2022-12-07T03:03:06;59.17;;;33.60;;
5077;SDS011;2557;51.390;7.494;2022-12-07T03:10:58;58.00;;;33.42;;
5077;SDS011;2557;51.390;7.494;2022-12-07T03:19:24;58.25;;;32.40;;
5077;SDS011;2557;51.390;7.494;2022-12-07T03:21:31;57.75;;;33.38;;
5077;SDS011;2557;51.390;7.494;2022-12-07T03:23:58;56.05;;;32.45;;
5077;SDS011;2557;51.390;7.494;2022-12-07T03:26:29;57.20;;;32.70;;
5077;SDS011;2557;51.390;7.494;2022-12-07T03:28:56;52.25;;;28.92;;
5077;SDS011;2557;51.390;7.494;2022-12-07T03:31:26;51.80;;;29.55;;
5077;SDS011;2557;51.390;7.494;2022-12-07T03:34:08;54.00;;;30.13;;
5077;SDS011;2557;51.390;7.494;2022-12-07T03:39:13;57.42;;;30.13;;
5077;SDS011;2557;51.390;7.494;2022-12-07T03:41:42;52.67;;;32.15;;
5077;SDS011;2557;51.390;7.494;2022-12-07T03:44:08;54.70;;;29.77;;
5077;SDS011;2557;51.390;7.494;2022-12-07T03:46:41;67.65;;;31.75;;
5077;SDS011;2557;51.390;7.494;2022-12-07T03:57:12;54.17;;;31.85;;
5077;SDS011;2557;51.390;7.494;2022-12-07T03:59:39;55.30;;;32.08;;
5077;SDS011;2557;51.390;7.494;2022-12-07T04:02:06;60.63;;;32.97;;
5077;SDS011;2557;51.390;7.494;2022-12-07T04:04:32;63.30;;;31.27;;
5077;SDS011;2557;51.390;7.494;2022-12-07T04:06:58;52.58;;;29.15;;
5077;SDS011;2557;51.390;7.494;2022-12-07T04:09:24;48.13;;;27.92;;
5077;SDS011;2557;51.390;7.494;2022-12-07T04:11:50;49.55;;;27.00;;
5077;SDS011;2557;51.390;7.494;2022-12-07T04:14:16;44.40;;;27.98;;
5077;SDS011;2557;51.390;7.494;2022-12-07T04:16:52;54.63;;;28.75;;
5077;SDS011;2557;51.390;7.494;2022-12-07T04:19:19;58.88;;;29.67;;
5077;SDS011;2557;51.390;7.494;2022-12-07T04:21:45;55.83;;;29.58;;
5077;SDS011;2557;51.390;7.494;2022-12-07T04:24:12;49.92;;;27.70;;
5077;SDS011;2557;51.390;7.494;2022-12-07T04:26:39;51.50;;;30.80;;
5077;SDS011;2557;51.390;7.494;2022-12-07T04:29:05;52.25;;;29.23;;
5077;SDS011;2557;51.390;7.494;2022-12-07T04:31:31;52.50;;;29.33;;
5077;SDS011;2557;51.390;7.494;2022-12-07T04:33:57;47.87;;;28.43;;
5077;SDS011;2557;51.390;7.494;2022-12-07T04:36:23;54.53;;;29.53;;
5077;SDS011;2557;51.390;7.494;2022-12-07T04:38:49;49.33;;;28.13;;
5077;SDS011;2557;51.390;7.494;2022-12-07T04:41:15;50.50;;;28.80;;
5077;SDS011;2557;51.390;7.494;2022-12-07T04:43:41;50.33;;;29.30;;
5077;SDS011;2557;51.390;7.494;2022-12-07T04:46:07;53.07;;;29.30;;
5077;SDS011;2557;51.390;7.494;2022-12-07T04:48:33;51.95;;;30.15;;
5077;SDS011;2557;51.390;7.494;2022-12-07T04:50:59;54.42;;;27.63;;
5077;SDS011;2557;51.390;7.494;2022-12-07T04:53:25;52.60;;;29.50;;
5077;SDS011;2557;51.390;7.494;2022-12-07T04:55:51;49.93;;;28.93;;
5077;SDS011;2557;51.390;7.494;2022-12-07T04:58:17;56.53;;;29.43;;
5077;SDS011;2557;51.390;7.494;2022-12-07T05:00:43;51.67;;;28.73;;
5077;SDS011;2557;51.390;7.494;2022-12-07T05:03:09;77.27;;;30.37;;
5077;SDS011;2557;51.390;7.494;2022-12-07T05:05:35;53.17;;;29.10;;
5077;SDS011;2557;51.390;7.494;2022-12-07T05:08:01;49.47;;;28.07;;
5077;SDS011;2557;51.390;7.494;2022-12-07T05:10:27;45.75;;;27.80;;
5077;SDS011;2557;51.390;7.494;2022-12-07T05:12:53;46.80;;;27.57;;
5077;SDS011;2557;51.390;7.494;2022-12-07T05:15:19;53.93;;;26.03;;
5077;SDS011;2557;51.390;7.494;2022-12-07T05:17:45;48.58;;;27.92;;
5077;SDS011;2557;51.390;7.494;2022-12-07T05:20:11;55.67;;;27.77;;
5077;SDS011;2557;51.390;7.494;2022-12-07T05:22:37;52.65;;;27.70;;
5077;SDS011;2557;51.390;7.494;2022-12-07T05:25:03;49.33;;;26.23;;
5077;SDS011;2557;51.390;7.494;2022-12-07T05:27:29;46.78;;;26.77;;
5077;SDS011;2557;51.390;7.494;2022-12-07T05:29:55;78.57;;;29.67;;
5077;SDS011;2557;51.390;7.494;2022-12-07T05:32:21;51.73;;;27.47;;
5077;SDS011;2557;51.390;7.494;2022-12-07T05:34:47;50.85;;;28.92;;
5077;SDS011;2557;51.390;7.494;2022-12-07T05:37:13;58.60;;;28.10;;
5077;SDS011;2557;51.390;7.494;2022-12-07T05:39:39;55.33;;;30.55;;
5077;SDS011;2557;51.390;7.494;2022-12-07T05:42:08;49.42;;;27.38;;
5077;SDS011;2557;51.390;7.494;2022-12-07T05:44:38;48.95;;;27.60;;
5077;SDS011;2557;51.390;7.494;2022-12-07T05:47:04;44.20;;;26.35;;
5077;SDS011;2557;51.390;7.494;2022-12-07T05:49:30;51.95;;;28.80;;
5077;SDS011;2557;51.390;7.494;2022-12-07T05:51:56;46.33;;;26.60;;
5077;SDS011;2557;51.390;7.494;2022-12-07T05:54:22;49.70;;;26.48;;
5077;SDS011;2557;51.390;7.494;2022-12-07T05:56:48;56.15;;;28.48;;
5077;SDS011;2557;51.390;7.494;2022-12-07T05:59:14;53.50;;;28.33;;
5077;SDS011;2557;51.390;7.494;2022-12-07T06:01:57;50.10;;;26.42;;
5077;SDS011;2557;51.390;7.494;2022-12-07T06:04:24;47.97;;;27.50;;
5077;SDS011;2557;51.390;7.494;2022-12-07T06:06:50;49.47;;;26.65;;
5077;SDS011;2557;51.390;7.494;2022-12-07T06:09:17;49.47;;;28.15;;
5077;SDS011;2557;51.390;7.494;2022-12-07T06:11:43;62.42;;;27.77;;
5077;SDS011;2557;51.390;7.494;2022-12-07T06:14:28;58.20;;;29.35;;
5077;SDS011;2557;51.390;7.494;2022-12-07T06:16:54;59.30;;;29.33;;
5077;SDS011;2557;51.390;7.494;2022-12-07T06:19:20;60.53;;;27.65;;
5077;SDS011;2557;51.390;7.494;2022-12-07T06:21:46;53.92;;;29.38;;
5077;SDS011;2557;51.390;7.494;2022-12-07T06:24:13;44.78;;;26.33;;
5077;SDS011;2557;51.390;7.494;2022-12-07T06:26:39;50.95;;;28.77;;
5077;SDS011;2557;51.390;7.494;2022-12-07T06:29:05;56.28;;;28.60;;
5077;SDS011;2557;51.390;7.494;2022-12-07T06:31:31;51.85;;;27.15;;
5077;SDS011;2557;51.390;7.494;2022-12-07T06:34:00;55.03;;;27.10;;
5077;SDS011;2557;51.390;7.494;2022-12-07T06:36:26;52.83;;;27.60;;
5077;SDS011;2557;51.390;7.494;2022-12-07T06:38:53;48.97;;;27.13;;
5077;SDS011;2557;51.390;7.494;2022-12-07T06:41:19;54.00;;;27.88;;
5077;SDS011;2557;51.390;7.494;2022-12-07T06:43:45;56.57;;;29.67;;
5077;SDS011;2557;51.390;7.494;2022-12-07T06:46:11;60.17;;;28.95;;
5077;SDS011;2557;51.390;7.494;2022-12-07T06:48:37;50.23;;;28.93;;
5077;SDS011;2557;51.390;7.494;2022-12-07T06:51:03;59.30;;;28.00;;
5077;SDS011;2557;51.390;7.494;2022-12-07T06:53:29;57.38;;;28.75;;
5077;SDS011;2557;51.390;7.494;2022-12-07T06:55:55;56.60;;;27.70;;
5077;SDS011;2557;51.390;7.494;2022-12-07T06:58:21;51.40;;;27.50;;
5077;SDS011;2557;51.390;7.494;2022-12-07T07:00:47;54.67;;;26.00;;
5077;SDS011;2557;51.390;7.494;2022-12-07T07:03:14;48.92;;;26.67;;
5077;SDS011;2557;51.390;7.494;2022-12-07T07:05:40;45.70;;;25.60;;
5077;SDS011;2557;51.390;7.494;2022-12-07T07:08:06;56.40;;;25.65;;
5077;SDS011;2557;51.390;7.494;2022-12-07T07:10:33;49.00;;;27.73;;
5077;SDS011;2557;51.390;7.494;2022-12-07T07:12:59;60.22;;;25.75;;
5077;SDS011;2557;51.390;7.494;2022-12-07T07:15:25;43.57;;;26.00;;
5077;SDS011;2557;51.390;7.494;2022-12-07T07:17:51;49.27;;;25.37;;
5077;SDS011;2557;51.390;7.494;2022-12-07T07:20:17;53.45;;;26.35;;
5077;SDS011;2557;51.390;7.494;2022-12-07T07:22:43;49.63;;;25.73;;
5077;SDS011;2557;51.390;7.494;2022-12-07T07:25:09;51.67;;;25.63;;
5077;SDS011;2557;51.390;7.494;2022-12-07T07:27:35;49.15;;;24.92;;
5077;SDS011;2557;51.390;7.494;2022-12-07T07:30:01;47.97;;;26.70;;
5077;SDS011;2557;51.390;7.494;2022-12-07T07:32:27;42.38;;;25.38;;
5077;SDS011;2557;51.390;7.494;2022-12-07T07:34:53;48.47;;;23.50;;
5077;SDS011;2557;51.390;7.494;2022-12-07T07:37:19;50.40;;;25.57;;
5077;SDS011;2557;51.390;7.494;2022-12-07T07:39:45;41.35;;;23.90;;
5077;SDS011;2557;51.390;7.494;2022-12-07T07:42:11;40.65;;;22.15;;
5077;SDS011;2557;51.390;7.494;2022-12-07T07:44:37;39.85;;;24.98;;
5077;SDS011;2557;51.390;7.494;2022-12-07T07:47:03;39.20;;;22.87;;
5077;SDS011;2557;51.390;7.494;2022-12-07T07:49:29;44.90;;;24.45;;
5077;SDS011;2557;51.390;7.494;2022-12-07T07:51:55;39.75;;;23.63;;
5077;SDS011;2557;51.390;7.494;2022-12-07T07:54:21;44.87;;;22.50;;
5077;SDS011;2557;51.390;7.494;2022-12-07T07:56:47;40.50;;;23.60;;
5077;SDS011;2557;51.390;7.494;2022-12-07T07:59:14;42.17;;;25.47;;
5077;SDS011;2557;51.390;7.494;2022-12-07T08:01:40;42.13;;;25.85;;
5077;SDS011;2557;51.390;7.494;2022-12-07T08:04:06;40.77;;;24.27;;
5077;SDS011;2557;51.390;7.494;2022-12-07T08:06:32;40.47;;;24.80;;
5077;SDS011;2557;51.390;7.494;2022-12-07T08:08:58;39.72;;;23.67;;
5077;SDS011;2557;51.390;7.494;2022-12-07T08:11:24;33.55;;;23.48;;
5077;SDS011;2557;51.390;7.494;2022-12-07T08:13:50;39.93;;;24.17;;
5077;SDS011;2557;51.390;7.494;2022-12-07T08:16:16;46.23;;;22.60;;
5077;SDS011;2557;51.390;7.494;2022-12-07T08:18:43;41.60;;;22.35;;
5077;SDS011;2557;51.390;7.494;2022-12-07T08:21:09;39.42;;;23.35;;
5077;SDS011;2557;51.390;7.494;2022-12-07T08:23:36;39.17;;;22.00;;
5077;SDS011;2557;51.390;7.494;2022-12-07T08:26:03;42.72;;;21.42;;
5077;SDS011;2557;51.390;7.494;2022-12-07T08:28:29;48.75;;;25.13;;
5077;SDS011;2557;51.390;7.494;2022-12-07T08:31:02;42.88;;;20.83;;
5077;SDS011;2557;51.390;7.494;2022-12-07T08:33:29;36.28;;;21.45;;
5077;SDS011;2557;51.390;7.494;2022-12-07T08:35:55;35.05;;;21.15;;
5077;SDS011;2557;51.390;7.494;2022-12-07T08:38:25;36.85;;;22.40;;
5077;SDS011;2557;51.390;7.494;2022-12-07T08:40:55;38.20;;;21.52;;
5077;SDS011;2557;51.390;7.494;2022-12-07T08:43:21;35.25;;;21.10;;
5077;SDS011;2557;51.390;7.494;2022-12-07T08:45:53;35.95;;;20.50;;
5077;SDS011;2557;51.390;7.494;2022-12-07T08:48:22;34.22;;;19.17;;
5077;SDS011;2557;51.390;7.494;2022-12-07T08:50:50;28.55;;;18.98;;
5077;SDS011;2557;51.390;7.494;2022-12-07T08:53:16;25.40;;;16.83;;
5077;SDS011;2557;51.390;7.494;2022-12-07T08:55:43;28.52;;;15.02;;
5077;SDS011;2557;51.390;7.494;2022-12-07T08:58:09;23.80;;;15.02;;
5077;SDS011;2557;51.390;7.494;2022-12-07T09:00:35;25.20;;;14.82;;
5077;SDS011;2557;51.390;7.494;2022-12-07T09:03:01;24.07;;;15.33;;
5077;SDS011;2557;51.390;7.494;2022-12-07T09:05:27;27.08;;;16.40;;
5077;SDS011;2557;51.390;7.494;2022-12-07T09:07:55;25.40;;;15.18;;
5077;SDS011;2557;51.390;7.494;2022-12-07T09:10:22;28.02;;;16.17;;
5077;SDS011;2557;51.390;7.494;2022-12-07T09:12:49;31.65;;;14.98;;
5077;SDS011;2557;51.390;7.494;2022-12-07T09:15:15;22.13;;;14.77;;
5077;SDS011;2557;51.390;7.494;2022-12-07T09:17:41;28.98;;;15.35;;
5077;SDS011;2557;51.390;7.494;2022-12-07T09:20:07;23.70;;;14.73;;
5077;SDS011;2557;51.390;7.494;2022-12-07T09:22:33;33.17;;;15.75;;
5077;SDS011;2557;51.390;7.494;2022-12-07T09:24:59;17.58;;;12.80;;
5077;SDS011;2557;51.390;7.494;2022-12-07T09:27:26;23.67;;;15.35;;
5077;SDS011;2557;51.390;7.494;2022-12-07T09:29:52;26.17;;;13.10;;
5077;SDS011;2557;51.390;7.494;2022-12-07T09:32:18;25.83;;;15.32;;
5077;SDS011;2557;51.390;7.494;2022-12-07T09:34:44;22.73;;;14.23;;
5077;SDS011;2557;51.390;7.494;2022-12-07T09:37:10;25.73;;;14.53;;
5077;SDS011;2557;51.390;7.494;2022-12-07T09:39:39;36.03;;;15.63;;
5077;SDS011;2557;51.390;7.494;2022-12-07T09:42:06;29.55;;;17.52;;
5077;SDS011;2557;51.390;7.494;2022-12-07T09:44:33;29.88;;;17.58;;
5077;SDS011;2557;51.390;7.494;2022-12-07T09:47:00;34.90;;;18.55;;
5077;SDS011;2557;51.390;7.494;2022-12-07T09:49:27;27.65;;;18.27;;
5077;SDS011;2557;51.390;7.494;2022-12-07T09:52:36;29.23;;;17.23;;
5077;SDS011;2557;51.390;7.494;2022-12-07T09:54:44;28.42;;;17.05;;
5077;SDS011;2557;51.390;7.494;2022-12-07T09:57:11;34.22;;;18.70;;
5077;SDS011;2557;51.390;7.494;2022-12-07T09:59:38;27.83;;;17.63;;
5077;SDS011;2557;51.390;7.494;2022-12-07T10:04:50;23.42;;;15.35;;
5077;SDS011;2557;51.390;7.494;2022-12-07T10:07:16;29.05;;;18.27;;
5077;SDS011;2557;51.390;7.494;2022-12-07T10:09:42;26.13;;;18.05;;
5077;SDS011;2557;51.390;7.494;2022-12-07T10:12:09;25.48;;;17.10;;
5077;SDS011;2557;51.390;7.494;2022-12-07T10:14:37;25.13;;;17.17;;
5077;SDS011;2557;51.390;7.494;2022-12-07T10:17:18;34.70;;;17.95;;
5077;SDS011;2557;51.390;7.494;2022-12-07T10:19:49;38.35;;;17.55;;
5077;SDS011;2557;51.390;7.494;2022-12-07T10:22:16;27.07;;;17.07;;
5077;SDS011;2557;51.390;7.494;2022-12-07T10:24:43;38.75;;;18.90;;
5077;SDS011;2557;51.390;7.494;2022-12-07T10:27:17;28.63;;;19.00;;
5077;SDS011;2557;51.390;7.494;2022-12-07T10:29:47;30.77;;;19.15;;
5077;SDS011;2557;51.390;7.494;2022-12-07T10:34:40;38.57;;;21.13;;
5077;SDS011;2557;51.390;7.494;2022-12-07T10:37:27;33.20;;;20.03;;
5077;SDS011;2557;51.390;7.494;2022-12-07T10:39:53;31.97;;;18.70;;
5077;SDS011;2557;51.390;7.494;2022-12-07T10:42:21;30.03;;;19.00;;
5077;SDS011;2557;51.390;7.494;2022-12-07T10:44:48;33.20;;;19.90;;
5077;SDS011;2557;51.390;7.494;2022-12-07T10:47:24;31.00;;;18.60;;
5077;SDS011;2557;51.390;7.494;2022-12-07T10:49:58;27.80;;;17.80;;
5077;SDS011;2557;51.390;7.494;2022-12-07T10:55:13;27.30;;;18.60;;
5077;SDS011;2557;51.390;7.494;2022-12-07T11:00:19;24.20;;;17.40;;
5077;SDS011;2557;51.390;7.494;2022-12-07T11:05:36;27.30;;;15.93;;
5077;SDS011;2557;51.390;7.494;2022-12-07T11:11:14;29.00;;;15.50;;
5077;SDS011;2557;51.390;7.494;2022-12-07T11:16:09;18.93;;;15.23;;
5077;SDS011;2557;51.390;7.494;2022-12-07T11:18:43;21.23;;;14.23;;
5077;SDS011;2557;51.390;7.494;2022-12-07T11:21:21;21.20;;;16.23;;
5077;SDS011;2557;51.390;7.494;2022-12-07T11:26:22;23.83;;;14.30;;
5077;SDS011;2557;51.390;7.494;2022-12-07T11:31:29;19.73;;;14.63;;
5077;SDS011;2557;51.390;7.494;2022-12-07T11:34:07;19.30;;;13.27;;
5077;SDS011;2557;51.390;7.494;2022-12-07T11:36:37;21.00;;;13.37;;
5077;SDS011;2557;51.390;7.494;2022-12-07T11:39:05;17.97;;;12.67;;
5077;SDS011;2557;51.390;7.494;2022-12-07T11:41:35;24.53;;;12.90;;
5077;SDS011;2557;51.390;7.494;2022-12-07T11:44:08;18.93;;;12.83;;
5077;SDS011;2557;51.390;7.494;2022-12-07T11:46:46;20.23;;;11.97;;
5077;SDS011;2557;51.390;7.494;2022-12-07T11:49:19;19.50;;;11.27;;
5077;SDS011;2557;51.390;7.494;2022-12-07T11:51:48;16.37;;;12.47;;
5077;SDS011;2557;51.390;7.494;2022-12-07T11:54:16;16.63;;;12.47;;
5077;SDS011;2557;51.390;7.494;2022-12-07T11:56:43;16.10;;;11.60;;
5077;SDS011;2557;51.390;7.494;2022-12-07T12:01:56;21.63;;;12.00;;
5077;SDS011;2557;51.390;7.494;2022-12-07T12:04:31;16.20;;;12.33;;
5077;SDS011;2557;51.390;7.494;2022-12-07T12:06:58;15.20;;;12.67;;
5077;SDS011;2557;51.390;7.494;2022-12-07T12:09:26;16.63;;;11.13;;
5077;SDS011;2557;51.390;7.494;2022-12-07T12:17:17;15.97;;;11.43;;
5077;SDS011;2557;51.390;7.494;2022-12-07T12:20:00;15.60;;;11.63;;
5077;SDS011;2557;51.390;7.494;2022-12-07T12:22:37;16.13;;;11.37;;
5077;SDS011;2557;51.390;7.494;2022-12-07T12:25:05;16.10;;;10.60;;
5077;SDS011;2557;51.390;7.494;2022-12-07T12:27:33;16.53;;;11.93;;
5077;SDS011;2557;51.390;7.494;2022-12-07T12:30:07;18.77;;;11.90;;
5077;SDS011;2557;51.390;7.494;2022-12-07T12:37:45;19.00;;;13.27;;
5077;SDS011;2557;51.390;7.494;2022-12-07T12:47:52;15.90;;;11.70;;
5077;SDS011;2557;51.390;7.494;2022-12-07T12:50:22;19.23;;;13.30;;
5077;SDS011;2557;51.390;7.494;2022-12-07T12:52:50;19.20;;;14.70;;
5077;SDS011;2557;51.390;7.494;2022-12-07T12:55:17;20.63;;;13.20;;
5077;SDS011;2557;51.390;7.494;2022-12-07T12:57:46;24.73;;;14.67;;
5077;SDS011;2557;51.390;7.494;2022-12-07T13:00:21;19.37;;;14.77;;
5077;SDS011;2557;51.390;7.494;2022-12-07T13:05:21;22.50;;;17.53;;
5077;SDS011;2557;51.390;7.494;2022-12-07T13:10:21;19.60;;;15.37;;
5077;SDS011;2557;51.390;7.494;2022-12-07T13:13:32;25.20;;;17.23;;
5077;SDS011;2557;51.390;7.494;2022-12-07T13:20:54;21.43;;;14.70;;
5077;SDS011;2557;51.390;7.494;2022-12-07T13:23:22;22.87;;;14.30;;
5077;SDS011;2557;51.390;7.494;2022-12-07T13:25:51;28.97;;;14.70;;
5077;SDS011;2557;51.390;7.494;2022-12-07T13:28:19;19.13;;;12.57;;
5077;SDS011;2557;51.390;7.494;2022-12-07T13:31:00;23.67;;;12.57;;
5077;SDS011;2557;51.390;7.494;2022-12-07T13:33:29;18.60;;;12.50;;
5077;SDS011;2557;51.390;7.494;2022-12-07T13:35:55;14.07;;;11.17;;
5077;SDS011;2557;51.390;7.494;2022-12-07T13:38:34;18.37;;;11.30;;
5077;SDS011;2557;51.390;7.494;2022-12-07T13:41:17;17.83;;;10.83;;
5077;SDS011;2557;51.390;7.494;2022-12-07T13:43:44;13.20;;;11.00;;
5077;SDS011;2557;51.390;7.494;2022-12-07T13:46:10;17.33;;;10.33;;
5077;SDS011;2557;51.390;7.494;2022-12-07T13:48:49;19.43;;;11.23;;
5077;SDS011;2557;51.390;7.494;2022-12-07T13:51:25;14.73;;;9.07;;
5077;SDS011;2557;51.390;7.494;2022-12-07T13:53:55;21.73;;;10.23;;
5077;SDS011;2557;51.390;7.494;2022-12-07T13:56:22;23.47;;;9.60;;
5077;SDS011;2557;51.390;7.494;2022-12-07T13:58:51;14.77;;;9.80;;
5077;SDS011;2557;51.390;7.494;2022-12-07T14:01:18;10.23;;;8.40;;
5077;SDS011;2557;51.390;7.494;2022-12-07T14:03:44;16.90;;;9.50;;
5077;SDS011;2557;51.390;7.494;2022-12-07T14:06:14;17.83;;;9.90;;
5077;SDS011;2557;51.390;7.494;2022-12-07T14:08:40;11.67;;;8.80;;
5077;SDS011;2557;51.390;7.494;2022-12-07T14:11:06;13.47;;;9.20;;
5077;SDS011;2557;51.390;7.494;2022-12-07T14:13:39;17.07;;;9.07;;
5077;SDS011;2557;51.390;7.494;2022-12-07T14:16:18;18.83;;;8.20;;
5077;SDS011;2557;51.390;7.494;2022-12-07T14:18:45;15.50;;;8.07;;
5077;SDS011;2557;51.390;7.494;2022-12-07T14:23:38;12.50;;;7.30;;
5077;SDS011;2557;51.390;7.494;2022-12-07T14:26:15;11.90;;;6.43;;
5077;SDS011;2557;51.390;7.494;2022-12-07T14:28:42;12.80;;;6.77;;
5077;SDS011;2557;51.390;7.494;2022-12-07T14:31:12;12.33;;;6.70;;
5077;SDS011;2557;51.390;7.494;2022-12-07T14:33:39;11.97;;;5.83;;
5077;SDS011;2557;51.390;7.494;2022-12-07T14:36:05;12.50;;;6.97;;
5077;SDS011;2557;51.390;7.494;2022-12-07T14:38:32;16.13;;;7.20;;
5077;SDS011;2557;51.390;7.494;2022-12-07T14:40:58;15.67;;;7.07;;
5077;SDS011;2557;51.390;7.494;2022-12-07T14:43:43;12.10;;;7.57;;
5077;SDS011;2557;51.390;7.494;2022-12-07T14:46:10;19.27;;;9.23;;
5077;SDS011;2557;51.390;7.494;2022-12-07T14:48:36;10.97;;;6.83;;
5077;SDS011;2557;51.390;7.494;2022-12-07T14:51:01;8.97;;;6.03;;
5077;SDS011;2557;51.390;7.494;2022-12-07T14:53:29;8.67;;;6.37;;
5077;SDS011;2557;51.390;7.494;2022-12-07T14:55:56;6.70;;;4.87;;
5077;SDS011;2557;51.390;7.494;2022-12-07T14:58:22;4.43;;;4.13;;
5077;SDS011;2557;51.390;7.494;2022-12-07T15:00:48;9.77;;;6.10;;
5077;SDS011;2557;51.390;7.494;2022-12-07T15:03:14;9.60;;;5.57;;
5077;SDS011;2557;51.390;7.494;2022-12-07T15:05:40;6.67;;;5.97;;
5077;SDS011;2557;51.390;7.494;2022-12-07T15:08:08;7.05;;;5.95;;
5077;SDS011;2557;51.390;7.494;2022-12-07T15:10:34;7.47;;;6.00;;
5077;SDS011;2557;51.390;7.494;2022-12-07T15:13:03;8.30;;;6.85;;
5077;SDS011;2557;51.390;7.494;2022-12-07T15:15:49;8.88;;;6.20;;
5077;SDS011;2557;51.390;7.494;2022-12-07T15:18:15;8.35;;;6.13;;
5077;SDS011;2557;51.390;7.494;2022-12-07T15:20:41;8.25;;;6.55;;
5077;SDS011;2557;51.390;7.494;2022-12-07T15:23:07;7.63;;;6.83;;
5077;SDS011;2557;51.390;7.494;2022-12-07T15:25:33;15.57;;;7.10;;
5077;SDS011;2557;51.390;7.494;2022-12-07T15:27:59;14.50;;;7.60;;
5077;SDS011;2557;51.390;7.494;2022-12-07T15:30:25;7.43;;;5.93;;
5077;SDS011;2557;51.390;7.494;2022-12-07T15:32:52;10.73;;;7.70;;
5077;SDS011;2557;51.390;7.494;2022-12-07T15:35:18;12.68;;;6.75;;
5077;SDS011;2557;51.390;7.494;2022-12-07T15:37:44;14.27;;;9.25;;
5077;SDS011;2557;51.390;7.494;2022-12-07T15:40:10;13.93;;;8.10;;
5077;SDS011;2557;51.390;7.494;2022-12-07T15:42:36;9.10;;;6.97;;
5077;SDS011;2557;51.390;7.494;2022-12-07T15:45:03;13.13;;;9.77;;
5077;SDS011;2557;51.390;7.494;2022-12-07T15:47:36;11.25;;;9.40;;
5077;SDS011;2557;51.390;7.494;2022-12-07T15:50:03;14.90;;;10.10;;
5077;SDS011;2557;51.390;7.494;2022-12-07T15:52:29;18.13;;;9.82;;
5077;SDS011;2557;51.390;7.494;2022-12-07T15:54:55;13.60;;;9.65;;
5077;SDS011;2557;51.390;7.494;2022-12-07T15:57:21;18.63;;;10.27;;
5077;SDS011;2557;51.390;7.494;2022-12-07T15:59:47;14.63;;;9.60;;
5077;SDS011;2557;51.390;7.494;2022-12-07T16:02:13;13.70;;;9.83;;
5077;SDS011;2557;51.390;7.494;2022-12-07T16:04:39;14.90;;;11.40;;
5077;SDS011;2557;51.390;7.494;2022-12-07T16:07:05;16.53;;;10.93;;
5077;SDS011;2557;51.390;7.494;2022-12-07T16:09:31;14.97;;;10.50;;
5077;SDS011;2557;51.390;7.494;2022-12-07T16:11:57;17.55;;;10.20;;
5077;SDS011;2557;51.390;7.494;2022-12-07T16:14:23;17.90;;;11.10;;
5077;SDS011;2557;51.390;7.494;2022-12-07T16:16:49;13.73;;;8.20;;
5077;SDS011;2557;51.390;7.494;2022-12-07T16:19:15;21.60;;;10.20;;
5077;SDS011;2557;51.390;7.494;2022-12-07T16:21:41;20.17;;;10.50;;
5077;SDS011;2557;51.390;7.494;2022-12-07T16:24:07;18.85;;;9.73;;
5077;SDS011;2557;51.390;7.494;2022-12-07T16:26:35;11.68;;;8.45;;
5077;SDS011;2557;51.390;7.494;2022-12-07T16:29:01;20.35;;;10.25;;
5077;SDS011;2557;51.390;7.494;2022-12-07T16:31:27;15.45;;;8.38;;
5077;SDS011;2557;51.390;7.494;2022-12-07T16:33:54;23.17;;;9.73;;